Toowoomba, Queensland

4:48 AM AEST on February 14, 2016 (GMT +1000)
Cranley | | Change Station
CLOSE
Current Station
Personal Weather Station
Location: Wilsonton Heights, QUEENSLAND
Elevation: 2087 ft
Nearby Weather Stations

Elev 2087 ft 27.53 °S, 151.93 °E | Updated 8 seconds ago

Clear
Clear
59.5 °F
Feels Like 59.5 °F
N
3.7
Wind Variable Wind from East
Gusts 5.8 mph

Today
High -- | Low -- °F
--% Chance of Precip.
Yesterday
High -- | Low -- °F
Precip. -- in
Pressure 29.83 in
Visibility 6.2 miles
Clouds
Dew Point 56 °F
Humidity 89%
Rainfall 0.00 in
Snow Depth Not available.
5:34 AM 6:38 PM
Waxing Crescent, 33% visible
METAR YBOK 131800Z AUTO 25004KT 9999 // NCD 15/13 Q1010
Pressure 29.83 in
Visibility 6.2 miles
Clouds
Dew Point 56 °F
Humidity 89%
Rainfall 0.00 in
Snow Depth Not available.
5:34 AM 6:38 PM
Waxing Crescent, 33% visible
METAR YBOK 131800Z AUTO 25004KT 9999 // NCD 15/13 Q1010

10-Day Weather Forecast

Almanac

Astronomy

Feb. 14, 2016 Rise Set
Actual Time
Civil Twilight
Nautical Twilight
Astronomical Twilight
Moon
Length of Visible Light
Length of Day
Tomorrow will be .
, % of the Moon is Illuminated

Today's Extremes

Country Highs Country Lows

Community

WunderPhotos

Upload Photos

1,892,633 photos uploaded!

WunderBlog® & News

Nearby

Air Quality

  Air Quality AQ Index Pollutant
Not available.

Snow Depth

Station Depth Elevation

Earthquake Activity

City Distance Mag. Time & Date
Minimum magnitude displayed is 2.5.

Coastal Water Temperatures

Place Temperature

Stations

Nearby Weather Stations

Station Location Temp. Windchill Dew Point Humidity Wind Precip. Elev Updated Type